Time;durP1;ratioP1;P1;durP2;ratioP2;P2;SDS_P1;SDS_P2;PMS_P1;PMS_P2;Temp;Humidity;BMP_temperature;BMP_pressure;BME280_temperature;BME280_humidity;BME280_pressure;Samples;Min_cycle;Max_cycle;Signal;HPM_P1;HPM_P2
2021/12/22 00:04:24;;;;;;;4.68;3.05;;;;;;;13.41;44.56;102226.44;19727983;30;20121;-73
2021/12/22 00:14:26;;;;;;;4.18;2.92;;;;;;;13.40;44.65;102227.38;19727721;30;20064;-72
2021/12/22 00:24:28;;;;;;;3.30;2.53;;;;;;;13.69;44.65;102286.69;19741618;30;20060;-73
2021/12/22 00:34:30;;;;;;;4.00;2.88;;;;;;;13.69;44.28;102298.22;19740538;30;20060;-73
2021/12/22 00:44:32;;;;;;;5.50;2.80;;;;;;;13.67;44.44;102289.41;19724832;30;20060;-73
2021/12/22 00:54:34;;;;;;;3.90;3.15;;;;;;;13.35;44.04;102235.63;19739052;30;20066;-73
2021/12/22 01:04:37;;;;;;;3.63;2.90;;;;;;;13.74;44.17;102293.56;19739093;30;20117;-72
2021/12/22 01:14:40;;;;;;;5.07;3.50;;;;;;;13.73;44.17;102291.81;19737397;30;20610;-73
2021/12/22 01:24:47;;;;;;;4.57;3.28;;;;;;;13.34;44.01;102232.06;19739155;30;20060;-73
2021/12/22 01:34:49;;;;;;;4.72;3.33;;;;;;;13.76;44.24;102310.41;19735945;30;20064;-73
2021/12/22 01:45:24;;;;;;;6.03;3.80;;;;;;;13.64;44.12;102292.25;19735579;30;20048;-73
2021/12/22 01:55:34;;;;;;;4.75;3.47;;;;;;;13.55;43.74;102284.66;19735491;30;20067;-73
2021/12/22 02:05:36;;;;;;;4.45;3.40;;;;;;;13.31;43.79;102242.94;19734413;30;20781;-73
2021/12/22 02:15:37;;;;;;;4.55;3.55;;;;;;;13.03;43.71;102204.09;19735818;30;20059;-73
2021/12/22 02:25:49;;;;;;;5.05;3.92;;;;;;;13.21;43.90;102228.25;19734789;30;20086;-73
2021/12/22 02:36:07;;;;;;;6.75;4.97;;;;;;;13.65;43.65;102299.31;19734897;30;20070;-73
2021/12/22 02:46:09;;;;;;;5.95;3.85;;;;;;;13.52;43.56;102263.41;19742062;30;20071;-73
2021/12/22 03:06:37;;;;;;;5.22;3.97;;;;;;;13.25;43.39;102226.28;19733012;30;20059;-73
2021/12/22 03:16:42;;;;;;;5.30;4.20;;;;;;;13.19;43.42;102227.47;19731491;30;20067;-75
2021/12/22 03:26:44;;;;;;;5.57;4.43;;;;;;;13.64;43.62;102294.91;19745249;30;20499;-73
2021/12/22 03:36:46;;;;;;;5.15;4.60;;;;;;;13.22;43.17;102227.31;19759644;30;20453;-73
2021/12/22 03:46:48;;;;;;;5.03;4.15;;;;;;;13.59;43.14;102295.16;19744978;30;20058;-73
2021/12/22 03:56:50;;;;;;;5.47;4.28;;;;;;;13.65;43.32;102323.41;19743487;30;20121;-73
2021/12/22 04:06:52;;;;;;;6.05;4.22;;;;;;;13.22;43.16;102231.78;19743837;30;20103;-71
2021/12/22 04:16:53;;;;;;;4.78;3.80;;;;;;;13.28;43.09;102234.19;19742761;30;20086;-71
2021/12/22 04:26:55;;;;;;;5.32;4.15;;;;;;;13.59;42.81;102294.28;19755898;30;20056;-71
2021/12/22 04:36:57;;;;;;;6.45;4.47;;;;;;;13.64;43.02;102286.88;19726403;30;20469;-71
2021/12/22 04:46:59;;;;;;;5.88;4.55;;;;;;;13.61;42.86;102298.63;19754621;30;20120;-71
2021/12/22 04:57:01;;;;;;;5.72;4.40;;;;;;;13.49;43.01;102251.91;19724385;30;20140;-71
2021/12/22 05:07:03;;;;;;;6.03;4.82;;;;;;;13.60;42.77;102255.88;19738128;30;20063;-70
2021/12/22 05:17:06;;;;;;;7.03;4.78;;;;;;;13.91;42.86;102262.41;19737723;30;20052;-70
2021/12/22 05:27:11;;;;;;;6.25;4.68;;;;;;;14.19;42.95;102256.50;19737903;30;20124;-70
2021/12/22 05:37:13;;;;;;;5.20;4.30;;;;;;;14.50;42.65;102276.34;19721815;30;20059;-70
2021/12/22 05:47:15;;;;;;;6.18;5.00;;;;;;;14.77;42.40;102256.25;19736734;30;20091;-71
2021/12/22 05:57:16;;;;;;;4.68;4.18;;;;;;;14.94;42.10;102253.50;19735164;30;20392;-71
2021/12/22 06:07:18;;;;;;;5.40;4.63;;;;;;;15.03;41.86;102245.94;19720026;30;20400;-73
2021/12/22 06:17:20;;;;;;;5.57;4.60;;;;;;;14.98;42.38;102237.25;19738527;30;20063;-72
2021/12/22 06:27:22;;;;;;;5.78;4.20;;;;;;;14.87;42.09;102217.25;19743784;30;20107;-71
2021/12/22 06:37:24;;;;;;;6.30;5.20;;;;;;;15.00;42.77;102243.38;19759467;30;20070;-71
2021/12/22 06:47:26;;;;;;;5.03;4.00;;;;;;;15.18;42.38;102245.06;19757688;30;20064;-73
2021/12/22 06:57:29;;;;;;;6.68;4.20;;;;;;;14.84;42.73;102162.94;19757472;30;20142;-75
2021/12/22 07:07:31;;;;;;;5.95;4.32;;;;;;;15.30;42.64;102210.44;19727979;30;20121;-73
2021/12/22 07:17:34;;;;;;;5.25;4.25;;;;;;;15.47;42.71;102226.47;19758159;30;20423;-73
2021/12/22 07:27:36;;;;;;;6.30;4.38;;;;;;;15.59;42.42;102256.25;19740070;30;20123;-73
2021/12/22 07:37:39;;;;;;;6.10;4.40;;;;;;;15.20;41.98;102156.44;19759443;30;20060;-73
2021/12/22 07:47:41;;;;;;;4.95;4.28;;;;;;;15.57;42.20;102207.16;19744762;30;20052;-73
2021/12/22 07:57:43;;;;;;;6.82;4.20;;;;;;;15.27;41.93;102140.88;19743222;30;20514;-73
2021/12/22 08:07:44;;;;;;;6.85;4.47;;;;;;;15.33;41.89;102192.38;19743407;30;20055;-73
2021/12/22 08:17:46;;;;;;;6.40;4.32;;;;;;;15.77;41.63;102219.41;19742677;30;20546;-73
2021/12/22 08:27:48;;;;;;;6.10;4.50;;;;;;;15.79;41.66;102237.13;19742245;30;20486;-73
2021/12/22 08:48:11;;;;;;;5.78;4.30;;;;;;;15.85;41.48;102208.19;19739421;30;20729;-71
2021/12/22 08:58:13;;;;;;;5.45;4.03;;;;;;;15.83;41.38;102212.78;19738996;30;20064;-73
2021/12/22 09:08:15;;;;;;;6.65;4.70;;;;;;;15.58;41.82;102190.94;19723427;30;20063;-73
2021/12/22 09:18:17;;;;;;;6.05;4.28;;;;;;;15.59;41.83;102249.03;19679897;30;20064;-72
2021/12/22 09:28:19;;;;;;;5.25;4.18;;;;;;;14.94;42.04;102143.56;19664950;30;20056;-71
2021/12/22 09:38:21;;;;;;;5.35;4.68;;;;;;;14.92;41.90;102148.13;19663803;30;20072;-74
2021/12/22 09:48:48;;;;;;;6.20;4.80;;;;;;;14.88;42.40;102162.69;19662314;30;20060;-71
2021/12/22 09:58:50;;;;;;;5.75;4.53;;;;;;;14.90;42.11;102150.03;19662625;30;20465;-71
2021/12/22 10:08:55;;;;;;;5.65;4.35;;;;;;;15.40;42.39;102205.44;19675954;30;20052;-72
2021/12/22 10:19:03;;;;;;;5.67;3.90;;;;;;;15.15;42.17;102167.44;19690479;30;20060;-72
2021/12/22 10:29:07;;;;;;;5.40;4.05;;;;;;;15.49;42.56;102203.09;19661855;30;20130;-72
2021/12/22 10:39:18;;;;;;;5.55;4.13;;;;;;;15.06;42.51;102125.06;19645852;30;20139;-72
2021/12/22 10:49:21;;;;;;;5.78;4.40;;;;;;;15.57;42.64;102186.50;19659688;30;20071;-72
2021/12/22 10:59:23;;;;;;;4.82;3.95;;;;;;;15.26;42.23;102120.34;19659550;30;20064;-72
2021/12/22 11:09:25;;;;;;;4.13;3.13;;;;;;;15.33;42.50;102119.91;19673869;30;20068;-72
2021/12/22 11:19:30;;;;;;;4.05;3.28;;;;;;;15.22;42.23;102085.66;19731314;30;20106;-72
2021/12/22 11:29:34;;;;;;;4.63;3.50;;;;;;;15.52;42.73;102119.69;19746571;30;20063;-72
2021/12/22 11:39:36;;;;;;;4.82;3.42;;;;;;;15.60;42.40;102131.81;19746638;30;20781;-72
2021/12/22 11:49:49;;;;;;;4.13;3.50;;;;;;;15.58;42.48;102096.97;19744878;30;20454;-70
2021/12/22 11:59:51;;;;;;;4.45;3.28;;;;;;;15.64;42.40;102096.63;19742953;30;20124;-72
2021/12/22 12:09:53;;;;;;;4.60;3.45;;;;;;;15.71;42.35;102080.16;19743379;30;20059;-71
2021/12/22 12:30:56;;;;;;;5.03;3.40;;;;;;;15.34;42.93;101989.28;19732166;30;20063;-72
2021/12/22 12:40:58;;;;;;;4.28;3.10;;;;;;;15.89;42.79;102045.94;19741519;30;20149;-72
2021/12/22 12:51:15;;;;;;;5.40;3.40;;;;;;;16.11;42.03;102039.25;19740877;30;20517;-72
2021/12/22 13:01:17;;;;;;;4.60;3.35;;;;;;;15.67;41.79;101902.28;19738909;30;20059;-72
2021/12/22 13:11:19;;;;;;;3.88;3.28;;;;;;;16.44;41.53;102024.63;19737664;30;20099;-72
2021/12/22 13:21:25;;;;;;;5.18;3.70;;;;;;;16.41;41.29;102006.88;19752312;30;20067;-75
2021/12/22 13:31:27;;;;;;;;;;;;;;;16.13;42.24;102005.09;19721412;30;20146;-72
2021/12/22 13:41:31;;;;;;;4.85;3.70;;;;;;;15.85;42.41;101974.56;19736154;30;19925;-72
2021/12/22 13:51:33;;;;;;;4.28;3.08;;;;;;;15.87;42.18;102004.88;19736909;30;20396;-72
2021/12/22 14:01:34;;;;;;;4.43;3.47;;;;;;;15.80;42.64;101997.19;19736097;30;20063;-71
2021/12/22 14:11:45;;;;;;;3.78;3.15;;;;;;;15.76;42.66;101997.50;19749089;30;20072;-72
2021/12/22 14:21:49;;;;;;;5.35;3.58;;;;;;;15.36;42.84;101906.88;19734123;30;20067;-72
2021/12/22 14:32:08;;;;;;;3.80;3.13;;;;;;;15.72;43.16;101966.44;19735217;30;20071;-72
2021/12/22 14:42:21;;;;;;;4.20;3.33;;;;;;;15.72;42.95;101956.56;19742095;30;20060;-72
2021/12/22 14:52:23;;;;;;;4.45;3.55;;;;;;;15.75;42.70;101940.25;19749128;30;20063;-72
2021/12/22 15:02:25;;;;;;;5.22;3.55;;;;;;;15.76;42.97;101952.72;19747395;30;20367;-73
2021/12/22 15:12:27;;;;;;;5.60;3.25;;;;;;;15.38;43.14;101853.97;19731969;30;20075;-73
2021/12/22 15:22:29;;;;;;;4.63;3.22;;;;;;;15.75;43.13;101916.09;19730955;30;20059;-74
2021/12/22 15:32:34;;;;;;;4.22;3.20;;;;;;;15.79;42.72;101912.25;19744925;30;20502;-73
2021/12/22 15:42:36;;;;;;;6.40;4.25;;;;;;;15.80;43.24;101900.53;19744412;30;20071;-73
2021/12/22 15:52:42;;;;;;;5.80;4.00;;;;;;;15.77;42.90;101887.31;19757620;30;20438;-72
2021/12/22 16:02:44;;;;;;;3.85;3.40;;;;;;;15.83;42.66;101890.56;19729701;30;20068;-73
2021/12/22 16:12:46;;;;;;;5.43;4.00;;;;;;;15.49;42.75;101830.03;19743454;30;20058;-73
2021/12/22 16:22:48;;;;;;;5.07;4.10;;;;;;;15.89;42.93;101882.13;19728421;30;20097;-73
2021/12/22 16:32:50;;;;;;;4.40;3.85;;;;;;;15.77;42.71;101856.94;19741233;30;20078;-73
2021/12/22 16:42:52;;;;;;;3.47;3.17;;;;;;;15.71;42.79;101833.16;19740991;30;20465;-73
2021/12/22 16:52:58;;;;;;;5.60;4.10;;;;;;;15.92;43.05;101857.81;19741369;30;20499;-72
2021/12/22 17:03:00;;;;;;;3.95;3.55;;;;;;;15.94;43.00;101837.91;19739883;30;20084;-73
2021/12/22 17:13:08;;;;;;;4.10;3.70;;;;;;;15.85;43.10;101814.34;19738033;30;20138;-73
2021/12/22 17:23:10;;;;;;;4.50;3.80;;;;;;;15.85;43.08;101786.59;19738701;30;20408;-73
2021/12/22 17:33:12;;;;;;;4.20;3.53;;;;;;;15.93;42.99;101798.59;19736909;30;20064;-73
2021/12/22 17:43:14;;;;;;;4.53;3.65;;;;;;;15.67;42.56;101751.97;19721640;30;20591;-73
2021/12/22 17:53:16;;;;;;;3.70;3.30;;;;;;;15.81;42.76;101776.06;19736713;30;20536;-73
2021/12/22 18:03:20;;;;;;;4.85;3.72;;;;;;;15.96;42.57;101784.13;19736568;30;20068;-72
2021/12/22 18:13:22;;;;;;;4.45;3.63;;;;;;;15.93;42.46;101773.59;19735359;30;20064;-72
2021/12/22 18:23:24;;;;;;;4.65;3.80;;;;;;;15.49;42.66;101711.97;19735574;30;20064;-73
2021/12/22 18:33:27;;;;;;;4.90;3.78;;;;;;;15.42;42.54;101645.38;19733844;30;20059;-73
2021/12/22 18:43:30;;;;;;;4.20;3.80;;;;;;;15.73;42.50;101700.53;19734777;30;20499;-73
2021/12/22 18:53:32;;;;;;;4.22;3.50;;;;;;;15.56;42.63;101652.50;19718648;30;20066;-73
2021/12/22 19:03:34;;;;;;;4.15;3.38;;;;;;;15.91;42.47;101713.75;19733953;30;20150;-73
2021/12/22 19:13:36;;;;;;;4.43;3.47;;;;;;;15.39;42.19;101630.31;19733865;30;20507;-73
2021/12/22 19:23:37;;;;;;;4.43;3.78;;;;;;;15.81;42.09;101690.16;19733361;30;20071;-73
2021/12/22 19:33:39;;;;;;;3.92;3.53;;;;;;;15.24;41.91;101594.63;19746464;30;20637;-73
2021/12/22 19:43:45;;;;;;;4.38;3.78;;;;;;;15.08;42.43;101594.81;19729861;30;20529;-73
2021/12/22 19:53:49;;;;;;;4.00;3.22;;;;;;;15.36;42.74;101636.78;19729347;30;20056;-73
2021/12/22 20:03:51;;;;;;;4.55;3.60;;;;;;;15.20;42.68;101631.56;19744436;30;20058;-73
2021/12/22 20:13:53;;;;;;;3.90;3.22;;;;;;;14.53;43.14;101546.44;19743717;30;20432;-73
2021/12/22 20:23:55;;;;;;;5.07;3.78;;;;;;;14.89;43.09;101611.25;19727494;30;20519;-73
2021/12/22 20:33:57;;;;;;;4.35;3.40;;;;;;;14.23;43.11;101538.53;19742295;30;20063;-73
2021/12/22 20:43:59;;;;;;;4.07;3.47;;;;;;;14.59;43.37;101610.41;19725398;30;20052;-73
2021/12/22 20:54:01;;;;;;;4.13;3.60;;;;;;;14.44;43.15;101584.53;19740962;30;20060;-73
2021/12/22 21:04:05;;;;;;;4.32;3.45;;;;;;;14.31;43.60;101597.84;19740102;30;20055;-72
2021/12/22 21:14:08;;;;;;;4.72;3.78;;;;;;;13.82;43.51;101524.97;19738295;30;20067;-73
2021/12/22 21:24:10;;;;;;;5.03;3.45;;;;;;;14.10;43.79;101586.66;19738120;30;20395;-72
2021/12/22 21:34:12;;;;;;;4.20;3.50;;;;;;;13.55;44.19;101503.41;19737008;30;20098;-73
2021/12/22 21:44:14;;;;;;;4.70;3.60;;;;;;;13.43;44.02;101471.13;19736272;30;20066;-73
2021/12/22 21:54:16;;;;;;;4.78;3.50;;;;;;;13.80;43.80;101536.72;19735068;30;20125;-72
2021/12/22 22:04:18;;;;;;;3.70;3.15;;;;;;;13.80;43.66;101518.00;19736333;30;20060;-73
2021/12/22 22:14:20;;;;;;;4.78;3.60;;;;;;;13.44;43.78;101464.81;19749768;30;20056;-73
2021/12/22 22:24:21;;;;;;;4.63;3.70;;;;;;;13.45;44.01;101441.59;19735414;30;20068;-72
2021/12/22 22:34:23;;;;;;;5.00;4.03;;;;;;;13.81;43.97;101482.25;19735126;30;20113;-72
2021/12/22 22:44:25;;;;;;;3.97;3.30;;;;;;;13.77;43.66;101463.72;19733617;30;20055;-72
2021/12/22 22:54:27;;;;;;;4.93;3.70;;;;;;;13.82;44.06;101454.53;19734564;30;20056;-72
2021/12/22 23:04:31;;;;;;;5.10;3.60;;;;;;;13.83;43.72;101442.88;19728275;30;20051;-72
2021/12/22 23:14:33;;;;;;;4.47;3.65;;;;;;;13.71;43.69;101417.72;19748138;30;20067;-72
2021/12/22 23:24:35;;;;;;;4.82;3.50;;;;;;;13.03;43.58;101297.06;19747140;30;20125;-72
2021/12/22 23:34:38;;;;;;;5.38;3.90;;;;;;;13.08;43.49;101299.44;19746567;30;20067;-72
2021/12/22 23:45:13;;;;;;;5.93;3.65;;;;;;;13.83;43.57;101426.81;19745848;30;20113;-72
2021/12/22 23:55:15;;;;;;;4.65;3.75;;;;;;;13.44;43.86;101317.72;19745002;30;20063;-72
